Time;durP1;ratioP1;P1;durP2;ratioP2;P2;SDS_P1;SDS_P2;PMS_P1;PMS_P2;Temp;Humidity;BMP_temperature;BMP_pressure;BME280_temperature;BME280_humidity;BME280_pressure;Samples;Min_cycle;Max_cycle;Signal;HPM_P1;HPM_P2
2022/11/06 00:02:01;;;;;;;21.80;15.95;;;;;;;13.84;64.98;100793.69;4945446;28;119885;-72
2022/11/06 00:04:30;;;;;;;23.63;17.02;;;;;;;13.86;65.45;100782.94;4945628;28;122614;-72
2022/11/06 00:06:55;;;;;;;22.42;15.27;;;;;;;13.89;64.52;100782.00;4950792;28;119455;-71
2022/11/06 00:09:21;;;;;;;21.90;15.40;;;;;;;13.89;64.58;100782.00;4939956;28;120020;-74
2022/11/06 00:11:49;;;;;;;21.83;15.67;;;;;;;13.87;64.58;100778.19;4941537;28;120503;-72
2022/11/06 00:14:16;;;;;;;23.55;15.73;;;;;;;13.87;64.64;100776.19;4946783;28;120045;-71
2022/11/06 00:16:43;;;;;;;23.27;15.53;;;;;;;13.90;64.68;100780.00;4944463;28;119467;-72
2022/11/06 00:19:09;;;;;;;22.33;14.95;;;;;;;13.84;64.54;100768.88;4944743;28;119963;-72
2022/11/06 00:21:35;;;;;;;22.95;15.40;;;;;;;13.84;64.61;100771.63;4947305;28;119508;-72
2022/11/06 00:24:03;;;;;;;21.73;15.77;;;;;;;13.83;65.36;100779.13;4934627;28;119496;-73
2022/11/06 00:26:30;;;;;;;25.23;15.90;;;;;;;13.80;65.00;100769.03;4934458;28;120184;-72
2022/11/06 00:28:56;;;;;;;25.87;16.90;;;;;;;13.81;65.56;100767.06;4948478;28;119839;-72
2022/11/06 00:31:25;;;;;;;22.92;16.55;;;;;;;13.75;64.98;100755.16;4946976;28;120327;-72
2022/11/06 00:33:52;;;;;;;22.98;16.80;;;;;;;13.74;65.61;100757.16;4929315;28;120530;-72
2022/11/06 00:36:20;;;;;;;24.77;16.98;;;;;;;13.74;65.23;100764.66;4944062;28;120085;-72
2022/11/06 00:38:46;;;;;;;23.92;16.67;;;;;;;13.71;65.12;100749.03;4939263;28;119632;-71
2022/11/06 00:41:14;;;;;;;22.30;16.83;;;;;;;13.70;65.56;100748.28;4945722;28;119439;-72
2022/11/06 00:43:40;;;;;;;24.77;17.73;;;;;;;13.68;65.95;100742.47;4951877;28;120248;-73
2022/11/06 00:46:09;;;;;;;25.30;17.05;;;;;;;13.68;65.72;100745.22;4940541;28;119453;-72
2022/11/06 00:48:36;;;;;;;24.25;16.98;;;;;;;13.66;65.49;100742.19;4948898;28;122006;-72
2022/11/06 00:51:18;;;;;;;25.83;17.77;;;;;;;13.65;65.21;100742.66;4953596;28;120048;-72
2022/11/06 00:53:44;;;;;;;24.80;18.33;;;;;;;13.65;65.58;100742.66;4957112;28;120073;-72
2022/11/06 00:56:16;;;;;;;25.98;17.60;;;;;;;13.64;65.43;100741.88;4949494;28;120310;-71
2022/11/06 00:58:42;;;;;;;23.90;17.13;;;;;;;13.63;65.77;100739.59;4962088;28;120027;-71
2022/11/06 01:01:09;;;;;;;26.45;17.23;;;;;;;13.66;65.86;100730.38;4949200;28;119629;-72
2022/11/06 01:03:36;;;;;;;23.48;17.00;;;;;;;13.65;65.80;100729.63;4949354;28;119798;-71
2022/11/06 01:06:22;;;;;;;27.30;18.20;;;;;;;13.63;65.80;100717.56;4949759;28;119593;-72
2022/11/06 01:08:49;;;;;;;25.80;18.00;;;;;;;13.68;65.58;100723.16;4954041;28;119753;-71
2022/11/06 01:11:16;;;;;;;27.80;18.77;;;;;;;13.70;66.15;100717.19;4945644;28;119496;-72
2022/11/06 01:13:44;;;;;;;21.95;17.02;;;;;;;13.67;65.64;100709.88;4948582;28;120182;-72
2022/11/06 01:16:13;;;;;;;25.33;17.70;;;;;;;13.70;66.26;100714.44;4947367;28;120267;-72
2022/11/06 01:18:40;;;;;;;25.52;17.60;;;;;;;13.73;65.71;100705.25;4933065;28;119984;-72
2022/11/06 01:21:09;;;;;;;28.08;18.35;;;;;;;13.74;65.92;100704.00;4954736;28;119594;-71
2022/11/06 01:23:35;;;;;;;25.20;17.95;;;;;;;13.74;65.69;100682.72;4946588;28;120011;-72
2022/11/06 01:26:03;;;;;;;24.40;17.63;;;;;;;13.76;65.61;100680.25;4949572;28;119943;-72
2022/11/06 01:28:29;;;;;;;24.90;17.67;;;;;;;13.75;65.82;100683.47;4948174;28;119717;-72
2022/11/06 01:30:55;;;;;;;24.90;17.73;;;;;;;13.70;65.62;100676.59;4948029;28;119505;-72
2022/11/06 01:33:22;;;;;;;25.43;18.23;;;;;;;13.69;65.46;100668.81;4950220;28;119951;-72
2022/11/06 01:35:50;;;;;;;26.93;18.23;;;;;;;13.67;65.79;100669.28;4952909;28;119742;-72
2022/11/06 01:38:43;;;;;;;26.80;18.07;;;;;;;13.66;65.51;100662.25;4945634;28;119804;-72
2022/11/06 01:41:18;;;;;;;25.63;17.70;;;;;;;13.67;65.66;100663.00;4938876;28;119404;-72
2022/11/06 01:43:51;;;;;;;25.23;18.02;;;;;;;13.66;65.77;100659.50;4946103;28;120243;-72
2022/11/06 01:46:18;;;;;;;22.80;17.45;;;;;;;13.67;65.63;100661.00;4943338;28;119831;-72
2022/11/06 01:49:14;;;;;;;24.98;17.98;;;;;;;13.69;66.11;100666.06;4942667;28;119780;-72
2022/11/06 01:51:46;;;;;;;26.05;17.85;;;;;;;13.71;65.79;100658.06;4943840;28;119792;-72
2022/11/06 01:54:13;;;;;;;25.55;18.10;;;;;;;13.74;66.25;100660.66;4945287;28;120079;-72
2022/11/06 01:56:42;;;;;;;25.92;17.15;;;;;;;13.75;65.88;100653.16;4943570;28;119787;-72
2022/11/06 01:59:11;;;;;;;26.05;17.70;;;;;;;13.74;66.39;100643.38;4947359;28;120220;-73
2022/11/06 02:01:37;;;;;;;27.40;18.47;;;;;;;13.74;66.01;100641.38;4943173;28;120990;-72
2022/11/06 02:04:24;;;;;;;27.13;18.33;;;;;;;13.76;66.20;100649.16;4944847;28;120183;-72
2022/11/06 02:06:50;;;;;;;25.52;18.27;;;;;;;13.74;66.15;100644.13;4947581;28;120674;-72
2022/11/06 02:09:17;;;;;;;28.20;19.50;;;;;;;13.74;66.68;100644.13;4944689;28;119410;-72
2022/11/06 02:11:49;;;;;;;27.38;19.48;;;;;;;13.69;66.81;100638.47;4945841;28;120225;-72
2022/11/06 02:14:23;;;;;;;28.42;19.40;;;;;;;13.66;66.50;100637.44;4944718;28;119883;-72
2022/11/06 02:17:08;;;;;;;27.55;19.95;;;;;;;13.66;67.21;100642.94;4945241;28;120111;-72
2022/11/06 02:19:49;;;;;;;31.33;20.80;;;;;;;13.66;67.53;100642.19;4951066;28;119987;-71
2022/11/06 02:22:23;;;;;;;29.05;21.25;;;;;;;13.66;67.45;100642.19;4944163;28;119375;-72
2022/11/06 02:25:20;;;;;;;28.20;20.90;;;;;;;13.64;67.54;100634.41;4947891;28;120763;-72
2022/11/06 02:28:13;;;;;;;32.10;21.93;;;;;;;13.62;67.58;100633.34;4947055;28;119906;-72
2022/11/06 02:30:43;;;;;;;29.40;21.98;;;;;;;13.61;68.16;100624.31;4948273;28;119727;-72
2022/11/06 02:33:14;;;;;;;31.63;23.65;;;;;;;13.59;68.18;100632.31;4939945;28;119759;-72
2022/11/06 02:35:49;;;;;;;32.42;23.55;;;;;;;13.56;68.62;100615.94;4953023;28;119902;-72
2022/11/06 02:38:21;;;;;;;33.60;25.00;;;;;;;13.57;68.77;100623.75;4955991;28;119698;-72
2022/11/06 02:40:52;;;;;;;35.13;25.88;;;;;;;13.59;68.61;100618.53;4946703;28;119997;-72
2022/11/06 02:43:48;;;;;;;34.75;25.58;;;;;;;13.62;68.91;100614.06;4878123;28;120147;-72
2022/11/06 02:46:20;;;;;;;34.00;25.38;;;;;;;13.62;68.94;100612.06;4942467;28;120884;-72
2022/11/06 02:48:50;;;;;;;33.97;25.15;;;;;;;13.64;68.89;100619.84;4947167;28;120108;-72
2022/11/06 02:51:20;;;;;;;34.03;25.50;;;;;;;13.62;68.73;100614.06;4944437;28;119444;-72
2022/11/06 02:53:47;;;;;;;32.88;25.30;;;;;;;13.58;68.54;100600.47;4955707;28;119821;-72
2022/11/06 02:56:19;;;;;;;33.67;25.88;;;;;;;13.58;68.59;100605.22;4944826;28;120545;-72
2022/11/06 02:58:56;;;;;;;34.67;26.97;;;;;;;13.57;69.17;100598.19;4946753;28;119857;-72
2022/11/06 03:01:27;;;;;;;35.45;26.83;;;;;;;13.57;69.30;100598.19;4940439;28;120448;-73
2022/11/06 03:04:01;;;;;;;33.75;26.10;;;;;;;13.56;69.14;100602.19;4943994;28;119772;-72
2022/11/06 03:06:42;;;;;;;34.83;27.50;;;;;;;13.54;69.52;100597.13;4951172;28;119277;-72
2022/11/06 03:09:17;;;;;;;36.58;27.98;;;;;;;13.50;69.72;100594.56;4956353;28;120077;-72
2022/11/06 03:11:47;;;;;;;35.38;27.55;;;;;;;13.56;69.64;100602.19;4948368;28;119298;-72
2022/11/06 03:14:18;;;;;;;35.70;27.80;;;;;;;13.60;69.36;100594.47;4936958;28;120017;-72
2022/11/06 03:16:57;;;;;;;33.70;26.42;;;;;;;13.59;69.45;100596.47;4929641;28;119974;-71
2022/11/06 03:19:50;;;;;;;36.50;27.60;;;;;;;13.59;69.63;100598.47;4944272;28;119851;-71
2022/11/06 03:22:40;;;;;;;34.58;27.13;;;;;;;13.61;69.59;100596.00;4936393;28;119893;-72
2022/11/06 03:25:07;;;;;;;32.97;25.97;;;;;;;13.64;69.44;100595.06;4940230;28;119334;-72
2022/11/06 03:27:40;;;;;;;31.65;25.55;;;;;;;13.63;68.96;100585.25;4945426;28;120019;-73
2022/11/06 03:30:12;;;;;;;31.25;25.10;;;;;;;13.63;69.02;100593.53;4950827;28;119712;-72
2022/11/06 03:33:18;;;;;;;29.33;25.83;;;;;;;13.66;69.78;100585.06;4953232;28;119857;-72
2022/11/06 03:35:51;;;;;;;30.90;24.23;;;;;;;13.69;69.13;100588.88;4930489;28;120423;-72
2022/11/06 03:38:19;;;;;;;28.13;24.25;;;;;;;13.69;70.10;100580.59;4939845;28;120001;-72
2022/11/06 03:40:51;;;;;;;28.60;22.77;;;;;;;13.69;69.54;100575.84;4945589;28;119963;-72
2022/11/06 03:43:23;;;;;;;27.02;23.13;;;;;;;13.76;69.60;100581.00;4942088;28;123069;-72
2022/11/06 03:45:52;;;;;;;26.58;22.73;;;;;;;13.76;69.52;100578.25;4941937;28;119890;-72
2022/11/06 03:48:36;;;;;;;24.50;21.38;;;;;;;13.79;69.27;100571.78;4954324;28;119929;-71
2022/11/06 03:51:17;;;;;;;24.73;19.97;;;;;;;13.79;69.75;100582.06;4941572;28;120607;-72
2022/11/06 03:53:53;;;;;;;23.87;20.00;;;;;;;13.79;69.36;100573.78;4944287;28;120109;-72
2022/11/06 03:57:04;;;;;;;23.13;19.92;;;;;;;13.73;69.35;100573.69;4954651;28;121965;-72
2022/11/06 03:59:41;;;;;;;23.30;19.98;;;;;;;13.74;69.88;100563.44;4946453;28;119723;-72
2022/11/06 04:02:07;;;;;;;24.08;20.35;;;;;;;13.76;69.67;100564.47;4952120;28;120082;-71
2022/11/06 04:04:37;;;;;;;22.03;19.70;;;;;;;13.76;69.84;100572.75;4943096;28;119613;-72
2022/11/06 04:07:08;;;;;;;20.33;18.13;;;;;;;13.79;69.53;100571.03;4946308;28;120498;-72
2022/11/06 04:15:15;;;;;;;21.48;18.52;;;;;;;13.80;69.66;100575.31;4937762;28;119594;-72
2022/11/06 04:17:41;;;;;;;22.58;19.95;;;;;;;13.82;69.74;100578.34;4950782;28;119443;-73
2022/11/06 04:21:20;;;;;;;21.73;19.17;;;;;;;13.80;69.25;100567.78;4946282;28;119678;-72
2022/11/06 04:23:08;;;;;;;24.73;20.70;;;;;;;13.79;69.97;100562.75;4938461;28;119944;-72
2022/11/06 04:28:34;;;;;;;26.75;21.60;;;;;;;13.80;69.75;100561.53;4944246;28;119499;-73
2022/11/06 04:31:05;;;;;;;25.13;19.77;;;;;;;13.83;69.65;100574.34;4932300;28;119933;-72
2022/11/06 04:33:35;;;;;;;24.98;21.25;;;;;;;13.85;70.04;100557.34;4945585;28;119674;-72
2022/11/06 04:36:17;;;;;;;26.08;21.73;;;;;;;13.87;69.76;100565.88;4928944;28;119773;-72
2022/11/06 04:38:54;;;;;;;24.55;20.63;;;;;;;13.86;69.73;100558.84;4961028;28;119906;-72
2022/11/06 04:41:33;;;;;;;27.40;22.27;;;;;;;13.89;70.07;100566.94;4943150;28;120086;-73
2022/11/06 04:44:25;;;;;;;28.42;21.80;;;;;;;13.91;70.13;100575.47;4940210;28;119712;-72
2022/11/06 04:47:01;;;;;;;30.27;22.67;;;;;;;13.92;70.02;100565.22;4939626;28;120157;-73
2022/11/06 04:49:31;;;;;;;28.67;22.30;;;;;;;13.93;70.33;100570.25;4944818;28;120433;-72
2022/11/06 04:51:58;;;;;;;33.22;22.98;;;;;;;13.94;69.75;100580.03;4941382;28;119766;-72
2022/11/06 04:54:25;;;;;;;29.75;22.48;;;;;;;13.94;69.86;100569.00;4943380;28;120150;-73
2022/11/06 04:57:00;;;;;;;28.90;21.75;;;;;;;13.92;69.93;100579.75;4945886;28;119622;-73
2022/11/06 04:59:31;;;;;;;30.27;22.03;;;;;;;13.95;69.92;100576.03;4941306;28;119731;-72
2022/11/06 05:02:32;;;;;;;31.83;23.23;;;;;;;13.97;69.81;100570.09;4947180;28;119946;-72
2022/11/06 05:04:57;;;;;;;32.00;22.70;;;;;;;14.00;70.04;100583.69;4946999;28;119830;-72
2022/11/06 05:07:23;;;;;;;28.90;21.67;;;;;;;14.03;70.04;100576.44;4928022;28;121579;-72
2022/11/06 05:09:49;;;;;;;30.10;21.57;;;;;;;14.05;69.94;100574.72;4944241;28;119974;-73
2022/11/06 05:12:14;;;;;;;32.37;21.03;;;;;;;14.03;70.08;100577.19;4943135;28;119732;-73
2022/11/06 05:14:40;;;;;;;28.53;21.03;;;;;;;14.05;70.03;100580.25;4945302;28;119442;-72
2022/11/06 05:17:06;;;;;;;27.70;20.27;;;;;;;14.02;69.96;100575.69;4945185;28;119813;-72
2022/11/06 05:19:31;;;;;;;27.43;20.87;;;;;;;14.04;69.58;100577.97;4943885;28;119627;-72
2022/11/06 05:24:41;;;;;;;25.15;20.40;;;;;;;14.06;70.30;100581.00;4946505;28;119489;-73
2022/11/06 05:27:07;;;;;;;26.42;19.98;;;;;;;14.04;69.91;100578.72;4945812;28;119523;-73
2022/11/06 05:29:33;;;;;;;25.70;19.50;;;;;;;14.01;70.21;100574.16;4946076;28;119549;-72
2022/11/06 05:31:58;;;;;;;24.80;18.90;;;;;;;14.01;70.40;100574.16;4949512;28;119481;-72
2022/11/06 05:34:24;;;;;;;23.90;17.60;;;;;;;14.01;69.99;100579.69;4944013;28;119992;-71
2022/11/06 05:36:50;;;;;;;24.65;18.13;;;;;;;13.97;70.59;100562.56;4947332;28;119712;-72
2022/11/06 05:39:15;;;;;;;22.17;18.05;;;;;;;13.98;70.52;100564.09;4944468;28;119488;-73
2022/11/06 05:41:41;;;;;;;22.77;17.67;;;;;;;13.93;70.10;100556.47;4948927;28;120307;-72
2022/11/06 05:44:06;;;;;;;20.50;16.92;;;;;;;13.94;70.52;100568.25;4949076;28;119707;-72
2022/11/06 05:46:32;;;;;;;21.00;16.60;;;;;;;13.95;70.79;100567.78;4934875;28;120923;-72
2022/11/06 05:48:58;;;;;;;21.95;16.80;;;;;;;13.97;70.37;100557.06;4946465;28;119252;-73
2022/11/06 05:51:24;;;;;;;19.67;15.60;;;;;;;13.99;70.09;100551.81;4948553;28;119651;-73
2022/11/06 05:53:49;;;;;;;17.58;15.30;;;;;;;14.01;70.52;100568.66;4945441;28;119750;-72
2022/11/06 05:56:15;;;;;;;18.08;15.45;;;;;;;14.03;70.80;100565.41;4948653;28;119401;-72
2022/11/06 05:58:41;;;;;;;18.98;15.88;;;;;;;14.05;70.03;100571.97;4947320;28;120013;-72
2022/11/06 06:01:06;;;;;;;20.92;16.50;;;;;;;14.06;70.50;100570.72;4947555;28;119655;-72
2022/11/06 06:03:32;;;;;;;20.48;15.95;;;;;;;14.07;70.15;100572.25;4948282;28;119895;-72
2022/11/06 06:05:58;;;;;;;20.95;16.58;;;;;;;14.04;70.18;100570.44;4948943;28;119505;-72
2022/11/06 06:08:24;;;;;;;22.08;17.48;;;;;;;14.04;70.57;100567.69;4949443;28;120006;-72
2022/11/06 06:10:59;;;;;;;21.92;18.83;;;;;;;14.03;70.85;100571.69;4948845;28;120219;-72
2022/11/06 06:13:25;;;;;;;24.88;19.35;;;;;;;14.07;70.55;100577.78;4948533;28;119652;-72
2022/11/06 06:15:50;;;;;;;25.83;19.27;;;;;;;14.07;70.28;100575.00;4946243;28;120884;-74
2022/11/06 06:18:16;;;;;;;24.27;19.95;;;;;;;14.09;70.30;100571.78;4948903;28;119884;-72
2022/11/06 06:20:44;;;;;;;25.08;19.52;;;;;;;14.12;69.87;100571.56;4946253;28;120468;-72
2022/11/06 06:23:09;;;;;;;24.17;19.92;;;;;;;14.12;70.28;100571.56;4944524;28;119813;-72
2022/11/06 06:25:35;;;;;;;24.27;18.67;;;;;;;14.14;70.28;100580.13;4948152;28;119609;-72
2022/11/06 06:28:12;;;;;;;21.77;18.85;;;;;;;14.12;70.42;100574.34;4943605;28;120023;-72
2022/11/06 06:30:38;;;;;;;23.00;18.90;;;;;;;14.11;70.35;100572.06;4950228;28;120283;-72
2022/11/06 06:33:05;;;;;;;24.27;18.40;;;;;;;14.11;70.27;100575.56;4947232;28;119808;-72
2022/11/06 06:35:31;;;;;;;25.47;20.30;;;;;;;14.10;70.10;100574.06;4948717;28;119836;-72
2022/11/06 06:37:58;;;;;;;28.02;20.05;;;;;;;14.09;70.48;100580.81;4930359;28;119915;-71
2022/11/06 06:40:25;;;;;;;30.50;21.90;;;;;;;14.11;70.41;100570.06;4946506;28;120264;-72
2022/11/06 06:42:54;;;;;;;31.37;22.33;;;;;;;14.13;70.31;100572.34;4948767;28;119768;-72
2022/11/06 06:45:19;;;;;;;31.88;23.45;;;;;;;14.11;70.29;100572.06;4947111;28;119988;-72
2022/11/06 06:48:03;;;;;;;33.13;23.35;;;;;;;14.13;70.49;100564.06;4943324;28;119845;-72
2022/11/06 06:50:29;;;;;;;33.90;23.90;;;;;;;14.15;70.50;100572.63;4952326;28;119508;-73
2022/11/06 06:52:56;;;;;;;36.10;24.52;;;;;;;14.17;70.48;100574.91;4940706;28;120775;-74
2022/11/06 06:55:23;;;;;;;34.55;24.58;;;;;;;14.18;70.66;100576.41;4943472;28;120484;-72
2022/11/06 06:57:54;;;;;;;36.53;24.88;;;;;;;14.22;70.52;100572.25;4926865;28;120016;-72
2022/11/06 07:00:20;;;;;;;37.03;25.77;;;;;;;14.26;70.63;100578.31;4941968;28;120019;-72
2022/11/06 07:02:46;;;;;;;37.37;24.83;;;;;;;14.29;70.15;100571.09;4947354;28;119516;-71
2022/11/06 07:05:12;;;;;;;35.70;25.83;;;;;;;14.28;70.13;100580.59;4944470;28;119976;-73
2022/11/06 07:07:37;;;;;;;32.70;24.80;;;;;;;14.27;70.30;100585.34;4943659;28;119914;-72
2022/11/06 07:10:03;;;;;;;35.07;25.53;;;;;;;14.27;69.47;100585.34;4946382;28;120089;-72
2022/11/06 07:12:29;;;;;;;42.00;27.17;;;;;;;14.27;70.07;100588.13;4944493;28;119822;-72
2022/11/06 07:14:55;;;;;;;39.85;26.38;;;;;;;14.27;69.89;100581.84;4941487;28;120544;-72
2022/11/06 07:17:20;;;;;;;35.95;26.50;;;;;;;14.22;69.74;100588.03;4946732;28;119542;-74
2022/11/06 07:19:46;;;;;;;40.58;26.38;;;;;;;14.26;70.07;100592.13;4948379;28;119735;-73
2022/11/06 07:22:12;;;;;;;37.70;26.65;;;;;;;14.26;69.52;100588.59;4947139;28;120320;-72
2022/11/06 07:24:38;;;;;;;37.78;25.90;;;;;;;14.22;69.82;100588.03;4944824;28;119737;-72
2022/11/06 07:27:04;;;;;;;33.33;24.85;;;;;;;14.23;69.91;100589.56;4946858;28;120443;-72
2022/11/06 07:29:32;;;;;;;34.47;24.90;;;;;;;14.28;70.01;100597.91;4928389;28;119734;-73
2022/11/06 07:31:58;;;;;;;33.47;23.30;;;;;;;14.30;69.43;100602.94;4945547;28;120338;-72
2022/11/06 07:34:24;;;;;;;33.10;24.40;;;;;;;14.26;69.61;100603.16;4940785;28;119681;-73
2022/11/06 07:36:49;;;;;;;32.97;23.42;;;;;;;14.26;69.97;100610.66;4934992;28;120251;-72
2022/11/06 07:39:15;;;;;;;34.70;24.13;;;;;;;14.28;70.11;100603.44;4941901;28;119858;-71
2022/11/06 07:41:41;;;;;;;32.20;23.48;;;;;;;14.30;69.75;100606.47;4940692;28;119706;-74
2022/11/06 07:44:06;;;;;;;31.20;23.00;;;;;;;14.36;70.04;100603.78;4941852;28;120203;-72
2022/11/06 07:46:32;;;;;;;35.97;23.95;;;;;;;14.35;69.88;100602.28;4939809;28;120957;-72
2022/11/06 07:48:58;;;;;;;31.95;22.15;;;;;;;14.38;69.84;100590.28;4943548;28;120289;-72
2022/11/06 07:51:24;;;;;;;29.17;21.48;;;;;;;14.39;69.59;100591.78;4942904;28;119854;-73
2022/11/06 07:53:49;;;;;;;27.63;21.17;;;;;;;14.38;69.64;100595.78;4939927;28;120448;-72
2022/11/06 07:56:15;;;;;;;25.63;21.17;;;;;;;14.41;70.04;100594.84;4947359;28;119504;-73
2022/11/06 07:58:41;;;;;;;25.38;21.00;;;;;;;14.44;69.48;100604.97;4940371;28;120198;-72
2022/11/06 08:01:13;;;;;;;29.10;20.92;;;;;;;14.47;70.04;100603.25;4939498;28;120286;-72
2022/11/06 08:03:39;;;;;;;25.75;18.17;;;;;;;14.43;69.44;100606.19;4942136;28;119858;-71
2022/11/06 08:06:05;;;;;;;22.02;18.60;;;;;;;14.45;69.50;100606.50;4941121;28;120137;-72
2022/11/06 08:08:36;;;;;;;22.27;18.33;;;;;;;14.46;69.16;100602.50;4908457;28;120054;-72
2022/11/06 08:11:10;;;;;;;22.95;17.23;;;;;;;14.45;69.39;100612.00;4944953;28;120010;-71
2022/11/06 08:13:37;;;;;;;23.45;18.08;;;;;;;14.44;69.25;100613.25;4938291;28;119431;-71
2022/11/06 08:16:08;;;;;;;24.25;17.92;;;;;;;14.42;69.44;100608.16;4944247;28;119498;-72
2022/11/06 08:18:34;;;;;;;25.17;18.63;;;;;;;14.43;69.73;100609.72;4944967;28;120393;-72
2022/11/06 08:21:00;;;;;;;19.63;16.73;;;;;;;14.45;69.50;100619.53;4941699;28;120282;-71
2022/11/06 08:23:26;;;;;;;25.58;19.17;;;;;;;14.42;69.49;100618.44;4944150;28;119357;-72
2022/11/06 08:25:54;;;;;;;21.80;18.53;;;;;;;14.39;69.82;100613.88;4939805;28;119807;-72
2022/11/06 08:28:20;;;;;;;21.85;18.60;;;;;;;14.43;69.76;100615.25;4942562;28;119933;-73
2022/11/06 08:30:45;;;;;;;23.08;19.48;;;;;;;14.45;69.47;100628.56;4942774;28;120824;-73
2022/11/06 08:33:11;;;;;;;23.38;18.58;;;;;;;14.43;69.96;100615.25;4943041;28;119799;-72
2022/11/06 08:35:37;;;;;;;23.73;19.42;;;;;;;14.42;69.78;100619.19;4942891;28;120049;-72
2022/11/06 08:38:07;;;;;;;23.08;18.92;;;;;;;14.43;69.74;100615.25;4930184;28;119759;-72
2022/11/06 08:40:35;;;;;;;24.60;19.02;;;;;;;14.45;69.94;100617.53;4943988;28;119614;-71
2022/11/06 08:43:03;;;;;;;25.42;19.88;;;;;;;14.44;69.88;100604.97;4942313;28;120148;-73
2022/11/06 08:45:30;;;;;;;24.08;19.35;;;;;;;14.45;69.89;100609.25;4940949;28;119788;-73
2022/11/06 08:48:01;;;;;;;25.03;20.20;;;;;;;14.48;70.36;100604.78;4941880;28;120122;-72
2022/11/06 08:50:27;;;;;;;22.55;19.10;;;;;;;14.50;70.02;100600.28;4943190;28;120126;-73
2022/11/06 08:52:56;;;;;;;26.08;19.58;;;;;;;14.54;69.88;100598.09;4941630;28;120580;-72
2022/11/06 08:55:21;;;;;;;27.13;20.52;;;;;;;14.58;69.94;100600.66;4926377;28;120221;-72
2022/11/06 08:57:47;;;;;;;23.60;18.83;;;;;;;14.59;70.18;100597.41;4943491;28;119730;-71
2022/11/06 09:00:18;;;;;;;25.58;19.70;;;;;;;14.62;69.84;100595.69;4943320;28;120383;-72
2022/11/06 09:02:43;;;;;;;22.70;18.98;;;;;;;14.66;69.75;100590.72;4945515;28;120110;-72
2022/11/06 09:05:09;;;;;;;26.23;20.52;;;;;;;14.66;70.20;100588.72;4944781;28;119700;-72
2022/11/06 09:07:35;;;;;;;22.17;18.50;;;;;;;14.73;69.67;100576.53;4948017;28;120036;-71
2022/11/06 09:10:00;;;;;;;21.83;18.13;;;;;;;14.77;69.41;100588.13;4945977;28;120069;-72
2022/11/06 09:12:26;;;;;;;23.67;18.13;;;;;;;14.79;69.22;100579.34;4944238;28;119542;-72
2022/11/06 09:14:52;;;;;;;19.77;17.00;;;;;;;14.83;69.88;100590.94;4946449;28;119688;-72
2022/11/06 09:17:22;;;;;;;17.33;15.27;;;;;;;14.84;69.61;100598.75;4944554;28;119810;-73
2022/11/06 09:19:49;;;;;;;18.63;15.63;;;;;;;14.85;69.11;100594.00;4944350;28;119986;-73
2022/11/06 09:22:14;;;;;;;20.23;15.68;;;;;;;14.85;68.51;100582.94;4949174;28;120650;-73
2022/11/06 09:24:40;;;;;;;21.60;16.85;;;;;;;14.86;69.34;100584.47;4945847;28;120399;-72
2022/11/06 09:27:06;;;;;;;22.98;16.80;;;;;;;14.85;69.07;100596.75;4960923;28;119773;-73
2022/11/06 09:29:32;;;;;;;21.48;17.73;;;;;;;14.84;68.96;100598.00;4946631;28;119770;-72
2022/11/06 09:31:58;;;;;;;24.38;18.70;;;;;;;14.81;68.98;100576.88;4942901;28;121006;-72
2022/11/06 09:34:43;;;;;;;29.23;19.65;;;;;;;14.81;68.74;100587.91;4945804;28;119547;-72
2022/11/06 09:37:09;;;;;;;25.23;18.97;;;;;;;14.79;69.05;100593.16;4943710;28;120557;-71
2022/11/06 09:39:43;;;;;;;29.48;20.70;;;;;;;14.77;68.91;100584.59;4923381;28;120041;-72
2022/11/06 09:42:59;;;;;;;30.30;23.17;;;;;;;14.78;69.16;100594.41;4900772;28;119484;-71
2022/11/06 09:45:29;;;;;;;29.07;21.00;;;;;;;14.77;69.09;100592.88;4903923;28;119863;-74
2022/11/06 09:47:58;;;;;;;29.15;21.38;;;;;;;14.80;69.18;100594.69;4945386;28;120157;-72
2022/11/06 09:50:29;;;;;;;30.40;20.45;;;;;;;14.76;69.23;100602.41;4928171;28;119906;-72
2022/11/06 09:53:08;;;;;;;31.25;21.08;;;;;;;14.78;69.13;100588.88;4941766;28;120162;-72
2022/11/06 09:55:39;;;;;;;32.40;21.08;;;;;;;14.78;68.84;100578.59;4942888;28;119964;-74
2022/11/06 09:58:17;;;;;;;30.33;20.63;;;;;;;14.79;69.00;100590.41;4942829;28;120009;-72
2022/11/06 10:00:47;;;;;;;30.73;22.00;;;;;;;14.79;69.07;100584.88;4943069;28;120349;-72
2022/11/06 10:03:13;;;;;;;31.97;21.33;;;;;;;14.82;68.94;100594.97;4943118;28;119684;-73
2022/11/06 10:05:41;;;;;;;36.13;21.90;;;;;;;14.81;69.11;100580.38;4944660;28;119743;-72
2022/11/06 10:08:21;;;;;;;35.40;21.95;;;;;;;14.85;68.99;100588.47;4930752;28;120888;-72
2022/11/06 10:11:01;;;;;;;32.28;21.33;;;;;;;14.86;69.30;100587.22;4944905;28;119574;-74
2022/11/06 10:13:48;;;;;;;32.13;21.95;;;;;;;14.88;69.13;100601.31;4943035;28;120117;-73
2022/11/06 10:16:22;;;;;;;31.52;21.48;;;;;;;14.90;68.83;100601.59;4941327;28;120475;-73
2022/11/06 10:19:06;;;;;;;30.30;21.63;;;;;;;14.90;68.75;100609.88;4944372;28;119690;-74
2022/11/06 10:21:54;;;;;;;33.20;21.37;;;;;;;14.89;68.82;100611.88;4942684;28;121119;-74
2022/11/06 10:24:36;;;;;;;32.05;21.48;;;;;;;14.89;68.49;100608.34;4944579;28;119979;-72
2022/11/06 10:27:08;;;;;;;30.45;21.08;;;;;;;14.89;68.61;100602.81;4942460;28;120289;-73
2022/11/06 10:29:52;;;;;;;31.73;22.10;;;;;;;14.89;68.93;100589.03;4941513;28;120250;-73
2022/11/06 10:32:38;;;;;;;29.83;21.65;;;;;;;14.87;68.49;100600.56;4946678;28;119927;-73
2022/11/06 10:35:16;;;;;;;35.75;23.48;;;;;;;14.90;68.71;100585.78;4943657;28;120751;-73
2022/11/06 10:38:02;;;;;;;32.10;22.42;;;;;;;14.96;68.44;100585.88;4944728;28;119953;-73
2022/11/06 10:40:30;;;;;;;28.33;20.83;;;;;;;14.96;68.77;100581.09;4944205;28;120209;-72
2022/11/06 10:43:30;;;;;;;31.95;22.17;;;;;;;15.02;68.49;100583.94;4943198;28;120371;-72
2022/11/06 10:46:17;;;;;;;28.97;21.37;;;;;;;15.04;68.60;100584.19;4939257;28;120205;-73
2022/11/06 10:48:49;;;;;;;29.95;21.27;;;;;;;15.06;68.51;100587.25;4927188;28;119692;-73
2022/11/06 10:51:33;;;;;;;31.63;21.53;;;;;;;15.11;68.38;100583.78;4943899;28;120653;-73
2022/11/06 10:54:18;;;;;;;30.90;22.95;;;;;;;15.13;68.33;100570.25;4947326;28;120119;-72
2022/11/06 10:56:56;;;;;;;27.73;19.98;;;;;;;15.16;68.34;100574.06;4941185;28;121329;-72
2022/11/06 10:59:22;;;;;;;29.48;20.70;;;;;;;15.16;67.72;100571.31;4943312;28;119762;-72
2022/11/06 11:01:48;;;;;;;26.52;19.35;;;;;;;15.20;67.85;100580.88;4945577;28;120130;-73
2022/11/06 11:04:43;;;;;;;27.47;19.83;;;;;;;15.17;67.72;100559.75;4932508;28;120326;-72
2022/11/06 11:07:14;;;;;;;29.57;20.50;;;;;;;15.20;67.39;100564.31;4942805;28;120051;-73
2022/11/06 11:09:40;;;;;;;28.03;20.33;;;;;;;15.21;67.87;100563.06;4935531;28;120036;-72
2022/11/06 11:12:31;;;;;;;26.05;20.33;;;;;;;15.27;67.77;100572.19;4932749;28;120545;-72
2022/11/06 11:15:04;;;;;;;25.17;18.27;;;;;;;15.28;67.49;100559.88;4937077;28;120170;-72
2022/11/06 11:17:30;;;;;;;24.27;17.27;;;;;;;15.26;67.11;100558.84;4938920;28;120302;-72
2022/11/06 11:19:56;;;;;;;24.35;17.60;;;;;;;15.25;67.60;100538.75;4933465;28;119773;-74
2022/11/06 11:22:23;;;;;;;25.33;18.23;;;;;;;15.24;67.40;100555.81;4918879;28;120416;-73
2022/11/06 11:25:04;;;;;;;24.63;18.23;;;;;;;15.26;66.88;100539.50;4936411;28;119531;-73
2022/11/06 11:27:44;;;;;;;25.17;17.60;;;;;;;15.23;67.41;100537.72;4937912;28;120182;-73
2022/11/06 11:30:28;;;;;;;22.60;17.93;;;;;;;15.23;67.41;100551.53;4934631;28;120211;-72
2022/11/06 11:32:56;;;;;;;24.15;18.42;;;;;;;15.28;67.65;100559.88;4932407;28;119405;-73